Terminal Aerodrome Forecast
Issued by NWS Mt. Holly, NJ

Home | Current Version | Previous Version | Text Only | Print | Product List | Glossary On
Versions: 1 2 3 4 5 6 7 8 9 10 11 12 13 14 15 16 17 18 19 20 21 22
143
FTUS41 KPHI 201737
TAFABE
TAF
KABE 201737Z 2018/2118 26012G25KT P6SM SCT050
     FM202100 25007KT P6SM SKC
     FM210200 VRB03KT P6SM SKC
     FM211300 VRB03KT P6SM SKC
     FM211600 21011G19KT P6SM SKC=

USA.gov is the U.S. government's official web portal to all federal, state and local government web resources and services.